Roopville, Georgia
Current Conditions -  °F | °C
As of 1:35 AM on Wednesday 28 Jan 2015 (Local Time) from KCTJ Reporting Station
Overcast Overcast  
Wind Chill: -1°   Ceiling: 2700
Heat Index:   Visibility: 10mi
Dew Point: -1°   Wind: 7mph
Humidity: 81%   Direction: 340°NNW
Pressure: 30.15"   Gusts: NA
Location:  33.46°N, 85.13°W
Report Text: KCTJ 280635Z AUTO 34006KT 10SM OVC027 02/M01 A3015 RMK AO2
Loading
Personal Weather Stations






























Interactive Weather Map New forecast layout! Learn more

10-Day Weather Forecast

Advertisements
Track Severe Weather on mobile